Time;durP1;ratioP1;P1;durP2;ratioP2;P2;SDS_P1;SDS_P2;PMS_P1;PMS_P2;Temp;Humidity;BMP_temperature;BMP_pressure;BME280_temperature;BME280_humidity;BME280_pressure;Samples;Min_cycle;Max_cycle;Signal;HPM_P1;HPM_P2
2023/09/30 00:00:37;;;;;;;2.70;1.90;;;;;;;23.85;43.10;95505.06;6062414;28;108951;-62
2023/09/30 00:03:41;;;;;;;1.90;1.58;;;;;;;23.84;43.36;95503.50;6052993;28;108887;-61
2023/09/30 00:06:44;;;;;;;2.50;1.83;;;;;;;23.83;43.36;95499.25;6063673;28;108976;-56
2023/09/30 00:09:48;;;;;;;2.13;1.93;;;;;;;23.84;42.78;95500.03;6063459;28;109272;-57
2023/09/30 00:12:52;;;;;;;2.10;1.90;;;;;;;23.83;43.05;95507.28;6063783;28;108909;-56
2023/09/30 00:15:55;;;;;;;1.92;1.73;;;;;;;23.83;43.09;95506.47;6053334;28;108934;-56
2023/09/30 00:18:59;;;;;;;1.90;1.60;;;;;;;23.84;42.91;95508.06;6063694;28;108948;-56
2023/09/30 00:22:02;;;;;;;1.80;1.60;;;;;;;23.82;43.31;95502.22;6063612;28;108980;-56
2023/09/30 00:25:06;;;;;;;2.17;1.98;;;;;;;23.82;43.38;95500.34;6062993;28;108914;-56
2023/09/30 00:28:11;;;;;;;2.00;1.80;;;;;;;23.79;42.82;95494.81;6052271;28;109363;-56
2023/09/30 00:31:14;;;;;;;2.03;1.83;;;;;;;23.82;42.87;95496.88;6062407;28;108927;-56
2023/09/30 00:34:17;;;;;;;2.30;2.10;;;;;;;23.81;43.34;95490.75;6063510;28;108936;-56
2023/09/30 00:37:21;;;;;;;2.38;2.08;;;;;;;23.81;43.30;95485.41;6055032;28;108873;-56
2023/09/30 00:40:24;;;;;;;1.98;1.60;;;;;;;23.81;43.40;95484.63;6061760;28;108932;-56
2023/09/30 00:43:28;;;;;;;1.90;1.50;;;;;;;23.79;43.08;95484.94;6063240;28;109077;-56
2023/09/30 00:46:33;;;;;;;1.90;1.70;;;;;;;23.77;43.08;95489.78;6063144;28;108888;-56
2023/09/30 00:49:36;;;;;;;1.63;1.52;;;;;;;23.79;43.34;95492.94;6052517;28;108882;-56
2023/09/30 00:52:40;;;;;;;2.20;1.80;;;;;;;23.80;43.22;95483.81;6063472;28;109281;-56
2023/09/30 00:55:43;;;;;;;2.00;1.80;;;;;;;23.78;43.14;95488.69;6062371;28;109240;-56
2023/09/30 00:58:51;;;;;;;1.90;1.70;;;;;;;23.77;43.57;95489.78;6062662;28;108892;-56
2023/09/30 01:01:57;;;;;;;3.00;1.60;;;;;;;23.78;43.15;95486.03;6051524;28;111417;-56
2023/09/30 01:05:02;;;;;;;2.10;1.90;;;;;;;23.78;43.54;95488.69;6067116;28;108901;-56
2023/09/30 01:08:05;;;;;;;2.10;1.90;;;;;;;23.77;42.96;95484.44;6067542;28;108890;-56
2023/09/30 01:11:10;;;;;;;2.03;1.80;;;;;;;23.66;43.51;95464.41;6062424;28;109169;-57
2023/09/30 01:14:27;;;;;;;2.10;1.90;;;;;;;23.79;42.94;95479.59;6062402;28;108894;-56
2023/09/30 01:17:31;;;;;;;2.30;2.10;;;;;;;23.78;43.09;95482.56;6066617;28;109338;-61
2023/09/30 01:20:35;;;;;;;2.07;1.87;;;;;;;23.77;43.49;95481.78;6066623;28;108972;-61
2023/09/30 01:23:39;;;;;;;2.00;1.80;;;;;;;23.77;43.32;95481.00;6055845;28;109164;-61
2023/09/30 01:26:43;;;;;;;2.00;1.80;;;;;;;23.77;43.31;95481.78;6066409;28;109052;-62
2023/09/30 01:29:47;;;;;;;2.30;1.80;;;;;;;23.80;43.29;95485.72;6066414;28;108936;-62
2023/09/30 01:32:50;;;;;;;2.10;1.77;;;;;;;23.74;43.43;95485.06;6065875;28;109051;-62
2023/09/30 01:35:53;;;;;;;2.20;1.80;;;;;;;23.76;43.18;95485.53;6055446;28;108901;-61
2023/09/30 01:38:58;;;;;;;1.90;1.70;;;;;;;23.77;42.98;95479.09;6066462;28;109197;-61
2023/09/30 01:42:01;;;;;;;1.92;1.63;;;;;;;23.76;43.38;95480.19;6066465;28;108956;-61
2023/09/30 01:45:05;;;;;;;2.20;1.57;;;;;;;23.76;43.35;95480.19;6060703;28;108936;-63
2023/09/30 01:48:11;;;;;;;2.00;1.80;;;;;;;23.76;43.42;95479.41;6060826;28;109218;-61
2023/09/30 01:51:14;;;;;;;1.98;1.63;;;;;;;23.77;43.42;95472.97;6065853;28;108947;-61
2023/09/30 01:54:18;;;;;;;1.83;1.73;;;;;;;23.77;43.51;95475.63;6066479;28;108983;-61
2023/09/30 01:57:22;;;;;;;2.00;1.80;;;;;;;23.75;43.22;95473.28;6054674;28;109232;-61
2023/09/30 02:00:25;;;;;;;1.95;1.50;;;;;;;23.75;43.24;95472.50;6066071;28;108900;-62
2023/09/30 02:03:29;;;;;;;2.00;1.80;;;;;;;23.75;43.34;95470.59;6065470;28;109064;-62
2023/09/30 02:06:32;;;;;;;2.50;1.90;;;;;;;23.75;43.06;95467.94;6066019;28;109006;-62
2023/09/30 02:09:37;;;;;;;2.30;1.70;;;;;;;23.76;43.21;95472.19;6055209;28;109098;-61
2023/09/30 02:12:40;;;;;;;1.90;1.67;;;;;;;23.74;43.11;95469.03;6065677;28;109010;-61
2023/09/30 02:15:43;;;;;;;1.90;1.70;;;;;;;23.73;43.12;95464.78;6065648;28;108850;-62
2023/09/30 02:18:51;;;;;;;2.10;1.90;;;;;;;23.73;43.54;95467.44;6065639;28;108940;-62
2023/09/30 02:21:55;;;;;;;1.70;1.60;;;;;;;23.74;43.32;95468.25;6058618;28;109168;-62
2023/09/30 02:24:59;;;;;;;2.08;1.88;;;;;;;23.75;43.57;95475.16;6065617;28;108917;-63
2023/09/30 02:28:02;;;;;;;2.05;1.85;;;;;;;23.76;43.34;95464.16;6065910;28;108896;-57
2023/09/30 02:31:07;;;;;;;1.80;1.57;;;;;;;23.74;43.49;95465.56;6055052;28;108873;-57
2023/09/30 02:34:10;;;;;;;2.00;1.80;;;;;;;23.74;43.45;95470.91;6064076;28;109063;-57
2023/09/30 02:37:13;;;;;;;1.80;1.70;;;;;;;23.72;43.24;95465.88;6065538;28;109043;-57
2023/09/30 02:40:18;;;;;;;2.10;1.90;;;;;;;23.72;43.64;95470.44;6065701;28;109263;-57
2023/09/30 02:43:21;;;;;;;2.50;1.60;;;;;;;23.73;43.19;95470.13;6031016;28;109257;-58
2023/09/30 02:46:27;;;;;;;2.15;1.90;;;;;;;23.72;43.35;95473.09;6049524;28;108962;-57
2023/09/30 02:49:33;;;;;;;2.42;2.00;;;;;;;23.72;43.67;95465.88;6065059;28;108932;-57
2023/09/30 02:52:39;;;;;;;2.00;1.80;;;;;;;23.71;43.48;95472.31;6065353;28;108910;-57
2023/09/30 02:55:43;;;;;;;1.90;1.70;;;;;;;23.71;42.98;95466.19;6053903;28;109260;-57
2023/09/30 02:58:47;;;;;;;2.00;1.80;;;;;;;23.73;43.36;95469.34;6064928;28;108893;-57
2023/09/30 03:01:50;;;;;;;2.70;2.00;;;;;;;23.70;43.53;95460.06;6064797;28;108937;-57
2023/09/30 03:04:53;;;;;;;2.30;1.90;;;;;;;23.71;43.30;95471.53;6058457;28;109072;-57
2023/09/30 03:07:57;;;;;;;2.10;1.90;;;;;;;23.70;43.27;95476.09;6058930;28;109181;-57
2023/09/30 03:11:01;;;;;;;2.40;2.20;;;;;;;23.71;43.51;95483.00;6064808;28;108990;-57
2023/09/30 03:14:07;;;;;;;2.35;1.95;;;;;;;23.70;43.15;95472.63;6064817;28;108869;-57
2023/09/30 03:17:11;;;;;;;2.00;1.80;;;;;;;23.70;43.35;95476.09;6053703;28;109104;-57
2023/09/30 03:20:19;;;;;;;3.15;1.70;;;;;;;23.69;43.48;95474.50;6064387;28;108937;-57
2023/09/30 03:23:22;;;;;;;2.00;1.80;;;;;;;23.68;43.12;95472.91;6064624;28;108834;-58
2023/09/30 03:26:29;;;;;;;2.00;1.80;;;;;;;23.71;43.38;95476.88;6063341;28;108946;-57
2023/09/30 03:29:32;;;;;;;2.20;2.00;;;;;;;23.69;43.39;95466.50;6053563;28;108949;-57
2023/09/30 03:32:37;;;;;;;2.20;1.97;;;;;;;23.71;43.22;95466.97;6063952;28;109201;-57
2023/09/30 03:35:41;;;;;;;2.30;2.03;;;;;;;23.68;43.27;95464.88;6063785;28;109058;-60
2023/09/30 03:38:44;;;;;;;2.17;1.73;;;;;;;23.67;43.59;95473.22;6036076;28;109286;-59
2023/09/30 03:41:49;;;;;;;2.33;2.07;;;;;;;23.70;43.41;95469.94;6043284;28;109274;-60
2023/09/30 03:44:52;;;;;;;2.33;2.10;;;;;;;23.68;43.15;95475.56;6064078;28;108966;-60
2023/09/30 03:47:55;;;;;;;2.30;1.97;;;;;;;23.69;43.36;95474.50;6064103;28;109064;-60
2023/09/30 03:50:58;;;;;;;2.30;2.10;;;;;;;23.67;43.25;95471.31;6053489;28;109992;-60
2023/09/30 03:54:02;;;;;;;2.30;2.10;;;;;;;23.70;43.38;95475.28;6063751;28;108962;-60
2023/09/30 03:57:07;;;;;;;2.42;2.20;;;;;;;23.67;43.52;95471.31;6063377;28;108935;-60
2023/09/30 04:00:16;;;;;;;2.10;1.90;;;;;;;23.67;43.08;95473.22;6063732;28;108950;-59
2023/09/30 04:03:19;;;;;;;2.50;2.30;;;;;;;23.67;42.98;95471.31;6052852;28;109000;-60
2023/09/30 04:06:22;;;;;;;2.20;2.00;;;;;;;23.66;43.63;95475.09;6063118;28;109324;-60
2023/09/30 04:09:25;;;;;;;2.30;2.10;;;;;;;23.69;43.32;95477.19;6064057;28;108868;-60
2023/09/30 04:12:32;;;;;;;2.30;2.10;;;;;;;23.66;43.51;95475.09;6062293;28;108926;-59
2023/09/30 04:15:37;;;;;;;2.30;2.10;;;;;;;23.58;43.08;95467.81;6055876;28;108949;-60
2023/09/30 04:18:41;;;;;;;2.67;2.40;;;;;;;23.64;43.24;95482.63;6063433;28;109112;-60
2023/09/30 04:21:44;;;;;;;2.80;2.60;;;;;;;23.65;43.36;95483.41;6063431;28;108948;-60
2023/09/30 04:24:49;;;;;;;2.50;2.30;;;;;;;23.65;43.21;95483.41;6052878;28;110566;-59
2023/09/30 04:27:57;;;;;;;2.50;2.30;;;;;;;23.60;43.29;95479.00;6063305;28;108905;-59
2023/09/30 04:31:00;;;;;;;2.60;2.40;;;;;;;23.65;43.65;95491.44;6063529;28;108790;-60
2023/09/30 04:34:04;;;;;;;2.30;2.10;;;;;;;23.63;43.19;95491.75;6063122;28;109051;-60
2023/09/30 04:37:09;;;;;;;2.60;2.40;;;;;;;23.62;43.33;95495.50;6050781;28;109665;-59
2023/09/30 04:40:15;;;;;;;2.50;2.30;;;;;;;23.66;43.21;95495.69;6062981;28;109019;-59
2023/09/30 04:43:20;;;;;;;2.70;2.50;;;;;;;23.60;43.52;95493.13;6063153;28;108889;-59
2023/09/30 04:46:24;;;;;;;3.20;2.50;;;;;;;23.64;43.17;95497.88;6063180;28;108947;-59
2023/09/30 04:49:27;;;;;;;2.60;2.40;;;;;;;23.63;43.28;95497.09;6053004;28;109317;-60
2023/09/30 04:52:30;;;;;;;2.67;2.47;;;;;;;23.64;43.62;95504.00;6062829;28;109359;-59
2023/09/30 04:55:33;;;;;;;3.20;2.60;;;;;;;23.62;43.17;95502.72;6062835;28;109010;-59
2023/09/30 04:58:38;;;;;;;2.90;2.70;;;;;;;23.61;43.42;95509.97;6056478;28;108946;-58
2023/09/30 05:01:41;;;;;;;2.60;2.40;;;;;;;23.62;43.17;95503.53;6059909;28;109307;-59
2023/09/30 05:04:44;;;;;;;2.80;2.50;;;;;;;23.60;43.69;95506.50;6063056;28;109305;-60
2023/09/30 05:07:48;;;;;;;2.70;2.50;;;;;;;23.60;43.38;95509.16;6061620;28;108928;-60
2023/09/30 05:10:51;;;;;;;3.20;2.70;;;;;;;23.61;43.27;95512.63;6052330;28;109022;-60
2023/09/30 05:13:56;;;;;;;3.10;2.80;;;;;;;23.61;43.15;95509.97;6062891;28;108963;-59
2023/09/30 05:16:59;;;;;;;4.67;3.07;;;;;;;23.62;43.27;95516.09;6062907;28;109234;-59
2023/09/30 05:20:06;;;;;;;2.97;2.75;;;;;;;23.61;43.13;95515.31;6063133;28;109010;-59
2023/09/30 05:23:12;;;;;;;3.00;2.78;;;;;;;23.62;43.28;95511.53;6051993;28;108856;-60
2023/09/30 05:26:15;;;;;;;3.30;3.00;;;;;;;23.60;43.47;95516.41;6063246;28;109199;-60
2023/09/30 05:29:20;;;;;;;3.25;2.95;;;;;;;23.61;43.51;95504.63;6062783;28;108961;-59
2023/09/30 05:32:23;;;;;;;4.10;3.20;;;;;;;23.61;43.30;95509.97;6057597;28;109116;-59
2023/09/30 05:35:27;;;;;;;3.38;3.05;;;;;;;23.60;43.05;95509.16;6057194;28;109095;-60
2023/09/30 05:38:31;;;;;;;3.40;3.10;;;;;;;23.60;43.43;95524.41;6061805;28;108944;-59
2023/09/30 05:41:34;;;;;;;3.22;2.92;;;;;;;23.63;42.97;95521.13;6062619;28;108957;-59
2023/09/30 05:44:39;;;;;;;3.80;3.50;;;;;;;23.64;43.07;95528.06;6051937;28;109303;-60
2023/09/30 05:47:44;;;;;;;3.40;3.10;;;;;;;23.64;43.48;95530.72;6062225;28;108988;-60
2023/09/30 05:50:47;;;;;;;3.60;3.30;;;;;;;23.61;43.28;95517.97;6065640;28;109189;-59
2023/09/30 05:53:50;;;;;;;3.30;3.00;;;;;;;23.67;43.39;95524.75;6066079;28;109020;-59
2023/09/30 05:56:53;;;;;;;3.67;3.38;;;;;;;23.61;43.35;95515.31;6054732;28;109423;-60
2023/09/30 05:59:58;;;;;;;3.92;3.60;;;;;;;23.65;43.00;95534.97;6066316;28;109012;-64
2023/09/30 06:03:01;;;;;;;4.50;4.07;;;;;;;23.78;42.77;95528.00;6066253;28;108866;-59
2023/09/30 06:06:04;;;;;;;4.30;3.90;;;;;;;23.78;43.11;95536.81;6066677;28;109207;-60
2023/09/30 06:09:08;;;;;;;3.80;3.50;;;;;;;23.84;43.04;95540.13;6055888;28;108905;-60
2023/09/30 06:12:11;;;;;;;4.00;3.70;;;;;;;23.90;43.15;95539.72;6066474;28;109177;-60
2023/09/30 06:15:21;;;;;;;4.50;4.10;;;;;;;24.02;42.71;95533.81;6065711;28;108998;-59
2023/09/30 06:18:25;;;;;;;4.00;3.70;;;;;;;24.15;42.88;95540.97;6055885;28;110454;-60
2023/09/30 06:21:29;;;;;;;4.00;3.60;;;;;;;24.29;42.83;95546.25;6065245;28;109079;-60
2023/09/30 06:24:32;;;;;;;4.35;3.95;;;;;;;24.39;42.47;95555.91;6065810;28;108933;-60
2023/09/30 06:27:35;;;;;;;4.10;3.70;;;;;;;24.50;42.06;95544.59;6065352;28;108959;-59
2023/09/30 06:30:42;;;;;;;3.80;3.50;;;;;;;24.58;42.38;95548.44;6055461;28;109447;-59
2023/09/30 06:33:46;;;;;;;4.20;3.80;;;;;;;24.69;42.04;95552.41;6065760;28;108764;-60
2023/09/30 06:36:49;;;;;;;4.13;3.70;;;;;;;24.77;42.04;95561.59;6065810;28;108921;-60
2023/09/30 06:39:53;;;;;;;4.10;3.70;;;;;;;24.88;41.84;95552.19;6064994;28;109032;-60
2023/09/30 06:42:57;;;;;;;4.80;4.30;;;;;;;24.92;41.57;95552.34;6054627;28;109224;-60
2023/09/30 06:46:08;;;;;;;4.30;3.90;;;;;;;24.94;42.04;95556.28;6065446;28;108905;-60
2023/09/30 06:49:11;;;;;;;3.97;3.67;;;;;;;24.98;41.53;95553.78;6064850;28;108909;-59
2023/09/30 06:52:14;;;;;;;4.60;4.20;;;;;;;25.01;41.42;95550.47;6059332;28;109364;-60
2023/09/30 06:55:17;;;;;;;4.20;3.80;;;;;;;25.13;41.49;95555.22;6059125;28;109744;-60
2023/09/30 06:58:21;;;;;;;4.30;3.90;;;;;;;25.18;41.68;95555.06;6064929;28;108995;-60
2023/09/30 07:01:25;;;;;;;4.30;3.90;;;;;;;25.27;41.28;95561.25;6064700;28;109199;-59
2023/09/30 07:04:30;;;;;;;4.60;4.20;;;;;;;25.30;41.09;95565.97;6055139;28;109266;-60
2023/09/30 07:07:34;;;;;;;5.30;4.40;;;;;;;25.32;41.45;95572.59;6064697;28;108991;-57
2023/09/30 07:10:37;;;;;;;4.10;3.80;;;;;;;25.34;41.53;95561.56;6064144;28;108933;-56
2023/09/30 07:13:40;;;;;;;4.43;4.03;;;;;;;25.37;41.16;95569.00;6064390;28;108952;-57
2023/09/30 07:16:45;;;;;;;4.25;3.85;;;;;;;25.38;41.23;95568.69;6053330;28;108954;-57
2023/09/30 07:19:48;;;;;;;4.40;4.00;;;;;;;25.41;41.17;95572.66;6064958;28;108960;-56
2023/09/30 07:22:52;;;;;;;4.37;3.97;;;;;;;25.45;41.11;95567.44;6064195;28;109328;-57
2023/09/30 07:26:14;;;;;;;3.95;3.55;;;;;;;25.49;40.73;95569.16;6059052;28;108984;-56
2023/09/30 07:29:17;;;;;;;4.13;3.73;;;;;;;25.50;41.19;95567.28;6060002;28;111077;-56
2023/09/30 07:32:23;;;;;;;4.40;4.00;;;;;;;25.54;40.88;95566.34;6064489;28;109172;-57
2023/09/30 07:35:27;;;;;;;4.27;3.87;;;;;;;25.56;40.75;95569.50;6063948;28;109138;-57
2023/09/30 07:38:30;;;;;;;4.32;3.97;;;;;;;25.58;40.73;95569.97;6053549;28;108841;-56
2023/09/30 07:41:36;;;;;;;4.25;3.85;;;;;;;25.61;40.84;95574.69;6063637;28;108897;-56
2023/09/30 07:44:39;;;;;;;4.00;3.70;;;;;;;25.58;40.39;95569.97;6064089;28;108931;-56
2023/09/30 07:47:46;;;;;;;3.80;3.50;;;;;;;25.66;40.84;95571.84;6063973;28;109186;-56
2023/09/30 07:50:49;;;;;;;4.00;3.60;;;;;;;25.67;40.88;95578.78;6053502;28;110024;-56
2023/09/30 07:53:53;;;;;;;4.40;4.00;;;;;;;25.70;40.54;95569.31;6063639;28;109141;-56
2023/09/30 07:56:57;;;;;;;4.10;3.80;;;;;;;25.70;40.81;95572.00;6063688;28;108953;-57
2023/09/30 08:00:00;;;;;;;4.03;3.63;;;;;;;25.73;40.44;95571.41;6059196;28;108957;-57
2023/09/30 08:03:06;;;;;;;4.10;3.77;;;;;;;25.74;40.58;95562.25;6058186;28;109413;-57
2023/09/30 08:06:09;;;;;;;3.90;3.60;;;;;;;25.77;40.23;95571.53;6063380;28;108987;-57
2023/09/30 08:09:14;;;;;;;4.20;3.80;;;;;;;25.79;40.87;95570.13;6063796;28;108942;-55
2023/09/30 08:12:17;;;;;;;4.10;3.80;;;;;;;25.79;40.50;95569.34;6051265;28;109322;-57
2023/09/30 08:15:20;;;;;;;3.80;3.50;;;;;;;25.81;40.56;95572.47;6063513;28;108909;-56
2023/09/30 08:18:25;;;;;;;4.10;3.80;;;;;;;25.81;40.28;95567.91;6063461;28;108930;-60
2023/09/30 08:21:28;;;;;;;4.00;3.60;;;;;;;25.83;40.46;95575.63;6064190;28;109065;-61
2023/09/30 08:24:31;;;;;;;4.10;3.70;;;;;;;25.84;40.63;95563.78;6053019;28;108830;-60
2023/09/30 08:27:35;;;;;;;3.90;3.60;;;;;;;25.84;40.70;95566.47;6062885;28;109226;-59
2023/09/30 08:30:39;;;;;;;3.88;3.47;;;;;;;25.87;40.67;95569.31;6063382;28;108890;-59
2023/09/30 08:33:45;;;;;;;4.00;3.70;;;;;;;25.85;40.72;95562.69;6063201;28;109292;-60
2023/09/30 08:36:48;;;;;;;3.70;3.40;;;;;;;25.86;40.32;95562.38;6052873;28;109446;-59
2023/09/30 08:39:52;;;;;;;4.10;3.70;;;;;;;25.86;40.31;95564.25;6062618;28;108982;-59
2023/09/30 08:42:55;;;;;;;4.00;3.70;;;;;;;25.85;40.63;95560.78;6062360;28;108932;-59
2023/09/30 08:45:59;;;;;;;3.40;3.10;;;;;;;25.84;40.09;95555.75;6056222;28;108969;-59
2023/09/30 08:49:06;;;;;;;4.22;3.83;;;;;;;25.84;40.70;95559.22;6060334;28;108932;-59
2023/09/30 08:52:11;;;;;;;3.50;3.20;;;;;;;25.85;40.82;95558.13;6062394;28;109042;-59
2023/09/30 08:55:14;;;;;;;3.78;3.47;;;;;;;25.82;40.47;95556.06;6061390;28;109047;-60
2023/09/30 08:58:19;;;;;;;4.03;3.63;;;;;;;25.80;40.43;95549.47;6051036;28;109076;-59
2023/09/30 09:01:23;;;;;;;3.97;3.67;;;;;;;25.78;40.70;95552.47;6062304;28;109065;-59
2023/09/30 09:04:28;;;;;;;3.60;3.30;;;;;;;25.74;40.74;95545.38;6062654;28;111031;-59
2023/09/30 09:07:33;;;;;;;4.28;3.88;;;;;;;25.76;40.54;95548.53;6062291;28;108905;-60
2023/09/30 09:10:36;;;;;;;3.70;3.40;;;;;;;25.72;40.43;95550.28;6051303;28;108954;-59
2023/09/30 09:13:49;;;;;;;3.70;3.40;;;;;;;25.74;40.25;95540.78;6061362;28;109046;-60
2023/09/30 09:16:54;;;;;;;4.13;3.83;;;;;;;25.72;40.72;95536.88;6062768;28;108955;-59
2023/09/30 09:20:04;;;;;;;4.00;3.70;;;;;;;25.71;40.69;95538.75;6056896;28;109334;-60
2023/09/30 09:23:08;;;;;;;4.22;3.92;;;;;;;25.75;40.57;95541.59;6060211;28;108989;-60
2023/09/30 09:26:12;;;;;;;4.30;3.90;;;;;;;25.74;40.51;95530.06;6066542;28;109107;-59
2023/09/30 09:29:15;;;;;;;4.28;3.88;;;;;;;25.76;40.53;95537.78;6066324;28;108948;-56
2023/09/30 09:32:19;;;;;;;4.30;3.90;;;;;;;25.71;40.30;95525.34;6055773;28;109020;-56
2023/09/30 09:35:25;;;;;;;4.00;3.60;;;;;;;25.75;40.60;95520.13;6066579;28;108939;-56
2023/09/30 09:38:44;;;;;;;3.90;3.60;;;;;;;25.77;40.57;95526.75;6066209;28;109022;-56
2023/09/30 09:41:52;;;;;;;4.60;4.20;;;;;;;25.75;40.71;95520.13;6066097;28;108998;-56
2023/09/30 09:44:57;;;;;;;4.20;3.90;;;;;;;25.79;40.97;95526.44;6053922;28;109112;-57
2023/09/30 09:48:00;;;;;;;4.30;3.90;;;;;;;25.81;40.50;95519.66;6066274;28;109001;-56
2023/09/30 09:51:07;;;;;;;4.30;3.90;;;;;;;25.80;40.64;95511.91;6065700;28;108971;-55
2023/09/30 09:54:10;;;;;;;4.30;3.90;;;;;;;25.79;40.48;95513.81;6059216;28;109048;-60
2023/09/30 09:57:14;;;;;;;4.90;4.40;;;;;;;25.78;41.05;95514.13;6063128;28;109064;-57
2023/09/30 10:00:20;;;;;;;4.68;4.28;;;;;;;25.79;40.65;95515.72;6065958;28;108916;-56
2023/09/30 10:03:24;;;;;;;4.90;4.50;;;;;;;25.81;40.69;95502.78;6065519;28;108939;-55
2023/09/30 10:06:29;;;;;;;4.70;4.30;;;;;;;25.79;40.88;95505.78;6055581;28;108950;-58
2023/09/30 10:09:35;;;;;;;4.88;4.47;;;;;;;25.79;41.17;95499.63;6065706;28;109044;-56
2023/09/30 10:12:39;;;;;;;5.15;4.75;;;;;;;25.77;40.99;95494.59;6065916;28;108867;-57
2023/09/30 10:15:42;;;;;;;5.25;4.85;;;;;;;25.78;40.79;95504.19;6064521;28;109016;-57
2023/09/30 10:19:08;;;;;;;5.30;4.80;;;;;;;25.77;40.81;95488.44;6053653;28;109093;-57
2023/09/30 10:22:30;;;;;;;5.07;4.68;;;;;;;25.77;40.79;95488.44;6066493;28;109053;-57
2023/09/30 10:25:35;;;;;;;5.30;4.90;;;;;;;25.77;40.98;95496.47;6064251;28;108941;-57
2023/09/30 10:28:40;;;;;;;5.10;4.70;;;;;;;25.76;41.18;95481.50;6054712;28;108980;-57
2023/09/30 10:31:51;;;;;;;5.30;4.80;;;;;;;25.75;40.85;95471.88;6065277;28;108937;-57
2023/09/30 10:34:54;;;;;;;5.00;4.60;;;;;;;25.74;40.63;95464.94;6065002;28;108810;-57
2023/09/30 10:38:31;;;;;;;5.10;4.70;;;;;;;25.74;41.04;95459.59;6065736;28;108873;-57
2023/09/30 10:41:54;;;;;;;5.60;5.10;;;;;;;25.73;40.47;95460.69;6053828;28;109084;-62
2023/09/30 10:44:57;;;;;;;5.68;5.18;;;;;;;25.71;40.95;95458.34;6065415;28;108862;-61
2023/09/30 10:48:41;;;;;;;5.30;4.80;;;;;;;25.67;40.99;95458.16;6064813;28;109208;-61
2023/09/30 10:51:46;;;;;;;5.30;4.90;;;;;;;25.66;41.01;95450.44;6054449;28;110031;-61
2023/09/30 10:54:50;;;;;;;5.55;5.10;;;;;;;25.64;40.93;95453.44;6063905;28;108916;-61
2023/09/30 10:57:55;;;;;;;5.60;5.10;;;;;;;25.60;41.25;95447.16;6065344;28;109124;-63
2023/09/30 11:00:58;;;;;;;5.38;4.90;;;;;;;25.61;41.21;95455.97;6064933;28;108979;-61
2023/09/30 11:04:05;;;;;;;5.10;4.60;;;;;;;25.60;41.22;95447.16;6054740;28;110872;-61
2023/09/30 11:07:09;;;;;;;5.30;4.90;;;;;;;25.57;41.21;95447.00;6064817;28;109271;-62
2023/09/30 11:10:12;;;;;;;5.80;5.30;;;;;;;25.56;41.15;95443.53;6065140;28;109018;-62
2023/09/30 11:13:16;;;;;;;5.20;4.72;;;;;;;25.52;41.26;95433.75;6060227;28;108906;-61
2023/09/30 11:16:20;;;;;;;5.63;5.18;;;;;;;25.54;41.24;95440.38;6059071;28;109226;-62
2023/09/30 11:19:24;;;;;;;5.13;4.65;;;;;;;25.52;41.10;95436.44;6063656;28;109043;-63
2023/09/30 11:22:28;;;;;;;5.80;5.30;;;;;;;25.50;41.78;95439.44;6064825;28;109009;-61
2023/09/30 11:25:37;;;;;;;5.25;4.75;;;;;;;25.48;41.43;95435.50;6053315;28;109110;-61
2023/09/30 11:28:43;;;;;;;5.40;5.00;;;;;;;25.46;41.60;95432.34;6064957;28;109006;-61
2023/09/30 11:31:47;;;;;;;6.00;5.50;;;;;;;25.42;41.57;95434.09;6064517;28;108879;-61
2023/09/30 11:34:51;;;;;;;5.20;4.70;;;;;;;25.44;41.58;95432.66;6063876;28;108945;-61
2023/09/30 11:37:54;;;;;;;5.65;5.20;;;;;;;25.43;41.48;95428.41;6053272;28;109931;-61
2023/09/30 11:41:02;;;;;;;5.40;5.00;;;;;;;25.40;41.71;95423.69;6064249;28;108895;-61
2023/09/30 11:44:09;;;;;;;5.55;5.15;;;;;;;25.39;41.65;95422.13;6064543;28;108854;-63
2023/09/30 11:47:16;;;;;;;6.10;5.60;;;;;;;25.37;41.65;95427.81;6061144;28;108952;-59
2023/09/30 11:50:19;;;;;;;5.70;5.20;;;;;;;25.37;41.63;95417.09;6055822;28;108964;-57
2023/09/30 11:53:22;;;;;;;5.30;4.90;;;;;;;25.35;41.68;95416.59;6064140;28;109021;-57
2023/09/30 11:56:29;;;;;;;5.80;5.33;;;;;;;25.34;41.53;95420.34;6063355;28;108904;-57
2023/09/30 11:59:36;;;;;;;5.68;5.20;;;;;;;25.41;42.36;95414.56;6052228;28;122923;-57
2023/09/30 12:02:40;;;;;;;5.33;4.93;;;;;;;25.41;42.56;95417.22;6063760;28;109291;-57
2023/09/30 12:05:45;;;;;;;5.40;5.00;;;;;;;25.41;42.61;95408.41;6063909;28;108871;-57
2023/09/30 12:08:51;;;;;;;5.90;5.40;;;;;;;25.39;42.70;95403.38;6063761;28;109037;-57
2023/09/30 12:11:55;;;;;;;5.68;5.20;;;;;;;25.38;42.75;95401.78;6052409;28;109093;-57
2023/09/30 12:15:00;;;;;;;5.45;5.05;;;;;;;25.41;42.59;95406.50;6063615;28;109028;-57
2023/09/30 12:18:03;;;;;;;5.60;5.20;;;;;;;25.40;42.86;95393.44;6063881;28;108970;-57
2023/09/30 12:21:10;;;;;;;5.90;5.40;;;;;;;25.41;43.14;95395.78;6062980;28;108815;-57
2023/09/30 12:24:16;;;;;;;5.90;5.40;;;;;;;25.40;43.04;95398.78;6052498;28;108948;-57
2023/09/30 12:27:19;;;;;;;5.55;5.10;;;;;;;25.36;42.17;95390.59;6063636;28;109073;-57
2023/09/30 12:30:23;;;;;;;5.57;5.07;;;;;;;25.31;42.57;95380.81;6063632;28;109044;-57
2023/09/30 12:33:27;;;;;;;5.20;4.80;;;;;;;25.30;42.38;95389.16;6054431;28;108874;-58
2023/09/30 12:36:32;;;;;;;5.20;4.80;;;;;;;25.22;42.32;95380.03;6062230;28;108969;-56
2023/09/30 12:39:36;;;;;;;5.75;5.25;;;;;;;25.22;42.64;95379.25;6062873;28;108959;-57
2023/09/30 12:42:39;;;;;;;5.60;5.20;;;;;;;25.25;42.38;95378.63;6063631;28;108896;-56
2023/09/30 12:45:45;;;;;;;5.00;4.60;;;;;;;25.23;42.62;95378.94;6052337;28;108955;-56
2023/09/30 12:48:49;;;;;;;5.77;5.27;;;;;;;25.14;42.62;95367.44;6063534;28;108746;-57
2023/09/30 12:51:52;;;;;;;5.70;5.30;;;;;;;25.22;42.25;95376.56;6061841;28;109006;-56
2023/09/30 12:54:55;;;;;;;5.50;5.00;;;;;;;25.21;42.56;95365.06;6062347;28;109177;-57
2023/09/30 12:57:59;;;;;;;5.57;5.07;;;;;;;25.20;42.22;95371.50;6052036;28;109105;-56
2023/09/30 13:01:06;;;;;;;5.20;4.80;;;;;;;25.20;42.42;95360.00;6062594;28;108910;-56
2023/09/30 13:04:25;;;;;;;5.38;4.97;;;;;;;25.17;42.66;95360.66;6062914;28;109028;-55
2023/09/30 13:07:29;;;;;;;5.57;5.18;;;;;;;25.16;42.53;95357.19;6054781;28;108892;-60
2023/09/30 13:10:32;;;;;;;5.10;4.70;;;;;;;25.16;42.53;95357.19;6060167;28;109013;-56
2023/09/30 13:13:35;;;;;;;5.68;5.25;;;;;;;25.14;42.84;95350.56;6063038;28;108887;-57
2023/09/30 13:16:40;;;;;;;5.77;5.37;;;;;;;25.15;42.40;95352.16;6062194;28;108996;-56
2023/09/30 13:19:43;;;;;;;5.50;5.10;;;;;;;25.15;42.48;95355.63;6050992;28;110892;-57
2023/09/30 13:22:47;;;;;;;5.32;4.93;;;;;;;25.12;42.81;95352.78;6062038;28;108911;-57
2023/09/30 13:25:50;;;;;;;5.95;5.45;;;;;;;25.20;42.63;95351.97;6062523;28;108913;-56
2023/09/30 13:28:54;;;;;;;6.20;5.70;;;;;;;25.14;42.70;95346.00;6062575;28;109028;-56
2023/09/30 13:31:58;;;;;;;6.40;5.80;;;;;;;25.21;42.80;95345.53;6052192;28;109001;-56
2023/09/30 13:35:02;;;;;;;6.13;5.63;;;;;;;25.22;43.31;95342.53;6062002;28;108972;-55
2023/09/30 13:38:05;;;;;;;6.20;5.70;;;;;;;25.22;43.04;95347.91;6062464;28;108969;-57
2023/09/30 13:41:08;;;;;;;6.10;5.60;;;;;;;25.24;43.37;95339.53;6056850;28;109039;-56
2023/09/30 13:44:11;;;;;;;6.40;5.90;;;;;;;25.24;43.19;95342.22;6056275;28;108958;-56
2023/09/30 13:47:16;;;;;;;6.80;6.30;;;;;;;25.23;43.19;95337.97;6061955;28;108942;-56
2023/09/30 13:50:19;;;;;;;6.55;6.05;;;;;;;25.24;43.42;95334.19;6062157;28;108860;-56
2023/09/30 13:53:22;;;;;;;6.50;6.00;;;;;;;25.22;43.44;95328.38;6051537;28;109224;-56
2023/09/30 13:56:27;;;;;;;6.05;5.55;;;;;;;25.25;43.28;95333.88;6060894;28;109064;-56
2023/09/30 13:59:30;;;;;;;6.60;6.10;;;;;;;25.23;43.39;95328.03;6061868;28;109284;-57
2023/09/30 14:02:35;;;;;;;6.00;5.50;;;;;;;25.23;43.40;95324.56;6061648;28;109200;-57
2023/09/30 14:05:39;;;;;;;6.90;6.40;;;;;;;25.23;43.04;95328.03;6050907;28;109055;-57
2023/09/30 14:08:43;;;;;;;6.10;5.60;;;;;;;25.18;43.09;95322.84;6061935;28;109039;-58
2023/09/30 14:11:47;;;;;;;6.40;5.90;;;;;;;25.17;43.26;95331.97;6064899;28;108922;-60
2023/09/30 14:14:51;;;;;;;6.70;6.10;;;;;;;25.11;42.95;95325.22;6066045;28;108939;-60
2023/09/30 14:17:56;;;;;;;6.70;6.20;;;;;;;25.07;43.30;95321.59;6054410;28;109030;-60